Time;durP1;ratioP1;P1;durP2;ratioP2;P2;SDS_P1;SDS_P2;PMS_P1;PMS_P2;Temp;Humidity;BMP_temperature;BMP_pressure;BME280_temperature;BME280_humidity;BME280_pressure;Samples;Min_cycle;Max_cycle;Signal;HPM_P1;HPM_P2
2021/06/28 00:00:57;;;;;;;92.32;83.85;;;;;;;;;;4992029;28;20029;-64
2021/06/28 00:03:23;;;;;;;94.68;86.65;;;;;;;;;;4988867;28;20802;-64
2021/06/28 00:05:49;;;;;;;94.57;87.40;;;;;;;;;;4990665;28;20023;-64
2021/06/28 00:08:15;;;;;;;102.40;93.80;;;;;;;;;;4991747;28;20026;-64
2021/06/28 00:10:42;;;;;;;106.18;97.47;;;;;;;;;;4989993;28;20119;-64
2021/06/28 00:13:08;;;;;;;108.43;100.30;;;;;;;;;;4988174;28;20049;-64
2021/06/28 00:15:37;;;;;;;110.72;103.50;;;;;;;;;;4987121;28;20022;-64
2021/06/28 00:18:04;;;;;;;111.90;103.57;;;;;;;;;;4989714;28;20037;-64
2021/06/28 00:20:33;;;;;;;106.45;98.13;;;;;;;;;;4988066;28;20022;-64
2021/06/28 00:22:59;;;;;;;94.00;87.20;;;;;;;;;;4988171;28;20053;-65
2021/06/28 00:25:25;;;;;;;96.65;90.03;;;;;;;;;;4989224;28;20075;-64
2021/06/28 00:27:51;;;;;;;89.35;82.10;;;;;;;;;;4989546;28;20660;-64
2021/06/28 00:30:19;;;;;;;98.72;90.50;;;;;;;;;;4988949;28;20539;-64
2021/06/28 00:32:45;;;;;;;93.00;85.28;;;;;;;;;;4987408;28;20026;-64
2021/06/28 00:35:12;;;;;;;95.20;87.22;;;;;;;;;;4990042;28;20037;-64
2021/06/28 00:37:38;;;;;;;88.38;82.10;;;;;;;;;;4988329;28;20137;-65
2021/06/28 00:40:06;;;;;;;100.93;91.70;;;;;;;;;;4986564;28;20030;-64
2021/06/28 00:42:32;;;;;;;97.97;90.07;;;;;;;;;;5006762;28;20035;-64
2021/06/28 00:44:58;;;;;;;88.47;82.10;;;;;;;;;;4987477;28;20080;-64
2021/06/28 00:47:24;;;;;;;62.75;57.38;;;;;;;;;;4988932;28;20052;-64
2021/06/28 00:49:50;;;;;;;82.55;74.97;;;;;;;;;;4988030;28;20061;-64
2021/06/28 00:52:17;;;;;;;87.07;79.00;;;;;;;;;;4987416;28;20035;-64
2021/06/28 00:54:44;;;;;;;93.70;83.97;;;;;;;;;;4993304;28;20019;-64
2021/06/28 00:57:10;;;;;;;90.30;83.28;;;;;;;;;;4987175;28;20026;-64
2021/06/28 00:59:36;;;;;;;101.80;93.60;;;;;;;;;;4988330;28;20026;-64
2021/06/28 01:02:03;;;;;;;92.22;84.68;;;;;;;;;;4988008;28;20045;-64
2021/06/28 01:04:30;;;;;;;85.43;78.68;;;;;;;;;;4988619;28;20018;-64
2021/06/28 01:06:57;;;;;;;93.10;85.38;;;;;;;;;;4988748;28;20033;-64
2021/06/28 01:09:23;;;;;;;98.50;89.32;;;;;;;;;;4990581;28;20034;-64
2021/06/28 01:11:49;;;;;;;88.70;81.70;;;;;;;;;;4989767;28;20034;-64
2021/06/28 01:14:16;;;;;;;90.03;82.70;;;;;;;;;;4989046;28;20038;-64
2021/06/28 01:16:43;;;;;;;81.18;74.00;;;;;;;;;;4988055;28;20034;-64
2021/06/28 01:19:10;;;;;;;83.03;74.65;;;;;;;;;;4986723;28;20030;-64
2021/06/28 01:21:38;;;;;;;83.18;76.03;;;;;;;;;;4987609;28;20022;-64
2021/06/28 01:24:04;;;;;;;105.68;94.75;;;;;;;;;;4989601;28;20414;-65
2021/06/28 01:26:30;;;;;;;79.00;72.38;;;;;;;;;;4988144;28;20132;-64
2021/06/28 01:28:56;;;;;;;78.03;71.32;;;;;;;;;;4988485;28;20030;-64
2021/06/28 01:31:22;;;;;;;65.97;59.80;;;;;;;;;;4988394;28;20036;-64
2021/06/28 01:33:48;;;;;;;62.72;56.70;;;;;;;;;;4985023;28;20026;-64
2021/06/28 01:36:14;;;;;;;66.00;59.42;;;;;;;;;;4987681;28;20027;-64
2021/06/28 01:38:40;;;;;;;67.07;60.05;;;;;;;;;;4987960;28;20038;-64
2021/06/28 01:41:07;;;;;;;70.22;61.40;;;;;;;;;;4988250;28;20030;-64
2021/06/28 01:43:33;;;;;;;70.25;62.65;;;;;;;;;;4988081;28;20038;-64
2021/06/28 01:45:59;;;;;;;75.88;67.80;;;;;;;;;;4988750;28;20034;-64
2021/06/28 01:48:25;;;;;;;76.63;68.20;;;;;;;;;;4989292;28;20052;-64
2021/06/28 01:50:52;;;;;;;85.53;65.63;;;;;;;;;;4988712;28;20026;-64
2021/06/28 01:53:18;;;;;;;85.45;64.10;;;;;;;;;;4987541;28;20493;-64
2021/06/28 01:55:44;;;;;;;63.33;56.72;;;;;;;;;;4989812;28;20022;-64
2021/06/28 01:58:13;;;;;;;73.68;63.63;;;;;;;;;;4988212;28;20030;-64
2021/06/28 02:00:41;;;;;;;115.15;70.90;;;;;;;;;;4987725;28;20030;-64
2021/06/28 02:03:10;;;;;;;81.90;66.32;;;;;;;;;;4986073;28;20026;-65
2021/06/28 02:05:38;;;;;;;86.22;65.95;;;;;;;;;;4988422;28;20035;-65
2021/06/28 02:08:05;;;;;;;65.72;58.65;;;;;;;;;;4987448;28;20035;-64
2021/06/28 02:10:31;;;;;;;62.63;55.63;;;;;;;;;;4987436;28;20387;-64
2021/06/28 02:12:57;;;;;;;58.47;52.97;;;;;;;;;;4986594;28;20040;-64
2021/06/28 02:15:25;;;;;;;59.92;51.13;;;;;;;;;;4988993;28;20048;-64
2021/06/28 02:17:51;;;;;;;51.17;45.72;;;;;;;;;;4986034;28;20030;-64
2021/06/28 02:20:18;;;;;;;53.20;47.42;;;;;;;;;;4987008;28;20030;-64
2021/06/28 02:22:44;;;;;;;62.63;46.53;;;;;;;;;;4985186;28;20011;-64
2021/06/28 02:25:11;;;;;;;51.22;44.05;;;;;;;;;;4989920;28;20131;-64
2021/06/28 02:27:38;;;;;;;71.45;50.83;;;;;;;;;;4993159;28;20023;-64
2021/06/28 02:30:06;;;;;;;46.75;41.45;;;;;;;;;;4988554;28;20027;-64
2021/06/28 02:32:32;;;;;;;44.55;39.67;;;;;;;;;;4987013;28;20676;-64
2021/06/28 02:34:58;;;;;;;50.78;39.38;;;;;;;;;;4990561;28;20026;-64
2021/06/28 02:37:24;;;;;;;43.10;38.00;;;;;;;;;;4975905;28;20041;-64
2021/06/28 02:39:50;;;;;;;49.47;41.15;;;;;;;;;;4979775;28;20042;-64
2021/06/28 02:42:17;;;;;;;51.00;43.47;;;;;;;;;;4985942;28;20035;-64
2021/06/28 02:44:43;;;;;;;47.30;42.00;;;;;;;;;;4987967;28;20031;-64
2021/06/28 02:47:10;;;;;;;46.03;41.17;;;;;;;;;;4987197;28;20109;-64
2021/06/28 02:49:36;;;;;;;44.50;39.90;;;;;;;;;;4987552;28;20033;-64
2021/06/28 02:52:02;;;;;;;69.10;48.00;;;;;;;;;;4984654;28;20072;-64
2021/06/28 02:54:30;;;;;;;59.60;42.50;;;;;;;;;;4987285;28;20663;-64
2021/06/28 02:56:56;;;;;;;52.83;45.67;;;;;;;;;;4988514;28;20552;-64
2021/06/28 02:59:22;;;;;;;55.67;45.38;;;;;;;;;;4988504;28;20554;-64
2021/06/28 03:01:48;;;;;;;48.97;43.83;;;;;;;;;;4985789;28;20022;-64
2021/06/28 03:04:14;;;;;;;44.63;39.58;;;;;;;;;;4988462;28;20030;-64
2021/06/28 03:06:41;;;;;;;47.10;42.03;;;;;;;;;;4986887;28;20031;-64
2021/06/28 03:09:07;;;;;;;48.97;43.30;;;;;;;;;;4986487;28;20030;-64
2021/06/28 03:11:33;;;;;;;47.08;42.00;;;;;;;;;;4984437;28;20030;-64
2021/06/28 03:13:59;;;;;;;46.58;41.85;;;;;;;;;;4988169;28;20037;-64
2021/06/28 03:16:25;;;;;;;48.17;43.17;;;;;;;;;;4990690;28;20462;-64
2021/06/28 03:18:52;;;;;;;47.78;41.90;;;;;;;;;;4990038;28;20038;-64
2021/06/28 03:21:18;;;;;;;46.97;39.83;;;;;;;;;;4989426;28;20023;-64
2021/06/28 03:23:45;;;;;;;46.30;40.55;;;;;;;;;;4990134;28;20042;-64
2021/06/28 03:26:11;;;;;;;47.60;39.72;;;;;;;;;;4990237;28;20037;-64
2021/06/28 03:28:37;;;;;;;69.00;45.40;;;;;;;;;;4990162;28;20026;-64
2021/06/28 03:31:04;;;;;;;47.55;41.17;;;;;;;;;;4989900;28;20038;-64
2021/06/28 03:33:30;;;;;;;60.53;47.95;;;;;;;;;;4990787;28;20030;-64
2021/06/28 03:35:56;;;;;;;63.70;46.70;;;;;;;;;;4990130;28;20101;-64
2021/06/28 03:38:22;;;;;;;62.28;49.50;;;;;;;;;;4990010;28;20114;-64
2021/06/28 03:40:48;;;;;;;55.75;44.75;;;;;;;;;;4990288;28;20077;-64
2021/06/28 03:43:14;;;;;;;74.32;50.75;;;;;;;;;;4988272;28;20019;-64
2021/06/28 03:45:41;;;;;;;70.30;52.63;;;;;;;;;;4986567;28;20038;-64
2021/06/28 03:48:08;;;;;;;73.45;65.40;;;;;;;;;;4990313;28;20030;-64
2021/06/28 03:50:34;;;;;;;83.88;66.32;;;;;;;;;;4996819;28;20080;-64
2021/06/28 03:53:01;;;;;;;72.95;65.80;;;;;;;;;;4988279;28;20022;-64
2021/06/28 03:55:27;;;;;;;76.22;68.32;;;;;;;;;;4987753;28;20037;-64
2021/06/28 03:57:53;;;;;;;78.80;70.85;;;;;;;;;;4988866;28;20030;-64
2021/06/28 04:00:20;;;;;;;80.78;73.22;;;;;;;;;;4989031;28;20034;-64
2021/06/28 04:02:47;;;;;;;73.85;66.63;;;;;;;;;;4989230;28;20405;-64
2021/06/28 04:05:17;;;;;;;94.88;84.50;;;;;;;;;;4989330;28;20439;-64
2021/06/28 04:07:43;;;;;;;105.00;95.00;;;;;;;;;;4989354;28;20042;-64
2021/06/28 04:10:09;;;;;;;90.68;82.68;;;;;;;;;;4988039;28;20031;-64
2021/06/28 04:12:36;;;;;;;93.25;85.05;;;;;;;;;;4987973;28;20023;-64
2021/06/28 04:15:03;;;;;;;96.07;86.82;;;;;;;;;;4990396;28;20056;-64
2021/06/28 04:17:29;;;;;;;83.10;75.53;;;;;;;;;;4992668;28;20091;-64
2021/06/28 04:19:55;;;;;;;77.68;70.45;;;;;;;;;;4988747;28;20034;-64
2021/06/28 04:22:21;;;;;;;83.03;75.55;;;;;;;;;;4986005;28;20087;-64
2021/06/28 04:24:47;;;;;;;79.85;71.55;;;;;;;;;;4989399;28;20581;-64
2021/06/28 04:27:13;;;;;;;86.95;78.45;;;;;;;;;;4989910;28;20026;-64
2021/06/28 04:29:40;;;;;;;90.50;81.15;;;;;;;;;;4992738;28;20030;-64
2021/06/28 04:32:06;;;;;;;125.28;94.70;;;;;;;;;;4993060;28;20045;-64
2021/06/28 04:34:32;;;;;;;112.05;66.47;;;;;;;;;;4986865;28;20034;-64
2021/06/28 04:36:58;;;;;;;134.95;90.55;;;;;;;;;;4986334;28;20076;-64
2021/06/28 04:39:24;;;;;;;141.05;103.88;;;;;;;;;;4987838;28;21647;-65
2021/06/28 04:41:50;;;;;;;122.85;108.57;;;;;;;;;;4985431;28;20067;-65
2021/06/28 04:44:16;;;;;;;122.03;109.22;;;;;;;;;;5002459;28;20030;-64
2021/06/28 04:46:45;;;;;;;123.32;111.10;;;;;;;;;;4985684;28;20147;-65
2021/06/28 04:49:11;;;;;;;154.18;114.07;;;;;;;;;;4987779;28;20130;-64
2021/06/28 04:51:39;;;;;;;170.23;127.90;;;;;;;;;;4987265;28;20034;-65
2021/06/28 04:54:05;;;;;;;162.98;130.80;;;;;;;;;;5008139;28;20047;-64
2021/06/28 04:56:31;;;;;;;185.93;145.82;;;;;;;;;;4986438;28;20064;-65
2021/06/28 04:58:58;;;;;;;140.00;125.55;;;;;;;;;;4981807;28;20045;-64
2021/06/28 05:01:24;;;;;;;140.30;125.65;;;;;;;;;;4985662;28;20029;-64
2021/06/28 05:03:50;;;;;;;161.48;141.60;;;;;;;;;;4988428;28;20113;-64
2021/06/28 05:06:16;;;;;;;158.02;141.30;;;;;;;;;;4986942;28;20034;-64
2021/06/28 05:08:42;;;;;;;163.05;146.68;;;;;;;;;;4987279;28;20035;-64
2021/06/28 05:11:08;;;;;;;155.27;140.32;;;;;;;;;;4983287;28;20106;-64
2021/06/28 05:13:34;;;;;;;181.13;149.93;;;;;;;;;;4978240;28;20098;-64
2021/06/28 05:16:00;;;;;;;164.68;149.32;;;;;;;;;;4981992;28;20034;-65
2021/06/28 05:18:26;;;;;;;148.90;134.00;;;;;;;;;;4985903;28;20034;-64
2021/06/28 05:20:53;;;;;;;153.32;138.18;;;;;;;;;;4986163;28;20029;-64
2021/06/28 05:23:20;;;;;;;149.32;134.55;;;;;;;;;;4986835;28;20030;-64
2021/06/28 05:25:46;;;;;;;144.70;131.25;;;;;;;;;;4988338;28;20140;-64
2021/06/28 05:28:12;;;;;;;157.48;141.20;;;;;;;;;;4987517;28;20087;-64
2021/06/28 05:30:38;;;;;;;163.82;146.10;;;;;;;;;;4988408;28;20028;-64
2021/06/28 05:33:04;;;;;;;152.70;135.27;;;;;;;;;;4987843;28;20026;-65
2021/06/28 05:35:30;;;;;;;136.85;124.03;;;;;;;;;;4988972;28;20105;-64
2021/06/28 05:37:56;;;;;;;151.27;137.10;;;;;;;;;;4987438;28;20539;-64
2021/06/28 05:40:22;;;;;;;143.00;129.35;;;;;;;;;;4991336;28;20034;-65
2021/06/28 05:42:48;;;;;;;158.70;145.15;;;;;;;;;;4988029;28;20018;-64
2021/06/28 05:45:15;;;;;;;140.02;127.85;;;;;;;;;;4988991;28;20041;-65
2021/06/28 05:47:41;;;;;;;141.75;129.57;;;;;;;;;;4987078;28;20042;-65
2021/06/28 05:50:09;;;;;;;137.13;125.82;;;;;;;;;;4988089;28;20508;-65
2021/06/28 05:52:35;;;;;;;130.63;118.43;;;;;;;;;;4987978;28;20083;-65
2021/06/28 05:55:02;;;;;;;115.70;105.70;;;;;;;;;;4991499;28;20489;-65
2021/06/28 05:57:28;;;;;;;124.55;114.05;;;;;;;;;;4988026;28;20036;-65
2021/06/28 05:59:57;;;;;;;114.85;104.82;;;;;;;;;;4987932;28;20366;-65
2021/06/28 06:02:23;;;;;;;123.25;110.00;;;;;;;;;;4983690;28;20262;-65
2021/06/28 06:04:49;;;;;;;124.10;110.78;;;;;;;;;;4988170;28;20011;-65
2021/06/28 06:07:15;;;;;;;116.82;106.03;;;;;;;;;;4988546;28;20022;-65
2021/06/28 06:09:41;;;;;;;118.07;107.78;;;;;;;;;;4987248;28;20057;-64
2021/06/28 06:12:07;;;;;;;116.57;105.63;;;;;;;;;;4987213;28;20451;-65
2021/06/28 06:14:33;;;;;;;132.75;114.30;;;;;;;;;;4988430;28;20038;-65
2021/06/28 06:16:59;;;;;;;123.38;106.38;;;;;;;;;;4987349;28;20054;-64
2021/06/28 06:19:25;;;;;;;136.18;115.35;;;;;;;;;;4985132;28;20014;-64
2021/06/28 06:21:52;;;;;;;123.78;111.93;;;;;;;;;;4987417;28;20088;-64
2021/06/28 06:24:19;;;;;;;121.65;109.82;;;;;;;;;;4989012;28;20026;-65
2021/06/28 06:26:45;;;;;;;116.85;104.85;;;;;;;;;;4988677;28;20486;-64
2021/06/28 06:29:11;;;;;;;117.20;104.82;;;;;;;;;;4988093;28;20037;-64
2021/06/28 06:31:37;;;;;;;132.93;118.78;;;;;;;;;;4983850;28;20030;-64
2021/06/28 06:34:03;;;;;;;135.20;119.65;;;;;;;;;;4988619;28;20030;-65
2021/06/28 06:36:30;;;;;;;136.68;122.22;;;;;;;;;;4987371;28;20045;-64
2021/06/28 06:38:56;;;;;;;146.48;132.43;;;;;;;;;;4988462;28;20107;-64
2021/06/28 06:41:22;;;;;;;156.63;142.57;;;;;;;;;;4986540;28;20033;-65
2021/06/28 06:43:48;;;;;;;149.82;135.73;;;;;;;;;;4987073;28;20490;-64
2021/06/28 06:46:14;;;;;;;150.02;135.73;;;;;;;;;;4986792;28;20551;-64
2021/06/28 06:48:40;;;;;;;148.48;132.77;;;;;;;;;;4988730;28;20042;-64
2021/06/28 06:51:06;;;;;;;148.60;133.55;;;;;;;;;;4991139;28;20265;-65
2021/06/28 06:53:32;;;;;;;159.95;142.52;;;;;;;;;;4992234;28;20023;-64
2021/06/28 06:55:58;;;;;;;172.25;155.90;;;;;;;;;;4995629;28;20031;-65
2021/06/28 06:58:24;;;;;;;154.93;140.10;;;;;;;;;;4991456;28;20549;-65
2021/06/28 07:00:50;;;;;;;163.52;148.50;;;;;;;;;;5056275;28;20089;-65
2021/06/28 07:03:16;;;;;;;160.00;145.13;;;;;;;;;;5023132;28;20160;-64
2021/06/28 07:05:42;;;;;;;171.63;155.25;;;;;;;;;;4991086;28;20026;-64
2021/06/28 07:08:08;;;;;;;174.55;159.63;;;;;;;;;;4991610;28;20034;-64
2021/06/28 07:10:34;;;;;;;178.48;160.32;;;;;;;;;;4990221;28;20034;-65
2021/06/28 07:13:01;;;;;;;165.00;148.48;;;;;;;;;;4985269;28;20100;-65
2021/06/28 07:15:27;;;;;;;146.23;131.65;;;;;;;;;;4990206;28;20067;-65
2021/06/28 07:17:53;;;;;;;139.77;122.38;;;;;;;;;;4989615;28;20030;-65
2021/06/28 07:20:22;;;;;;;138.80;103.15;;;;;;;;;;4990287;28;20503;-65
2021/06/28 07:22:48;;;;;;;125.38;106.70;;;;;;;;;;4987764;28;20045;-65
2021/06/28 07:25:15;;;;;;;139.77;114.80;;;;;;;;;;4990950;28;20019;-65
2021/06/28 07:27:41;;;;;;;127.65;107.45;;;;;;;;;;4990184;28;20025;-65
2021/06/28 07:30:09;;;;;;;134.73;110.47;;;;;;;;;;4990403;28;20030;-64
2021/06/28 07:32:35;;;;;;;125.47;106.13;;;;;;;;;;4988615;28;20019;-65
2021/06/28 07:35:01;;;;;;;142.65;127.13;;;;;;;;;;4990972;28;20034;-65
2021/06/28 07:37:27;;;;;;;144.07;121.53;;;;;;;;;;4990693;28;20049;-64
2021/06/28 07:39:54;;;;;;;126.72;111.90;;;;;;;;;;4991196;28;20106;-65
2021/06/28 07:42:20;;;;;;;135.10;115.38;;;;;;;;;;4987950;28;20029;-64
2021/06/28 07:44:46;;;;;;;127.30;113.43;;;;;;;;;;4989822;28;20105;-64
2021/06/28 07:47:12;;;;;;;116.45;91.60;;;;;;;;;;4990534;28;20027;-64
2021/06/28 07:49:38;;;;;;;121.43;101.32;;;;;;;;;;4978120;28;20034;-64
2021/06/28 07:52:09;;;;;;;115.93;98.30;;;;;;;;;;4987257;28;20105;-64
2021/06/28 07:54:35;;;;;;;102.30;82.80;;;;;;;;;;4986422;28;20030;-65
2021/06/28 07:57:01;;;;;;;103.57;86.47;;;;;;;;;;4990680;28;20027;-64
2021/06/28 07:59:27;;;;;;;104.40;90.28;;;;;;;;;;5024079;28;20030;-64
2021/06/28 08:01:53;;;;;;;92.25;77.85;;;;;;;;;;4987293;28;20019;-64
2021/06/28 08:04:19;;;;;;;94.43;80.85;;;;;;;;;;4990226;28;20027;-64
2021/06/28 08:06:45;;;;;;;100.60;86.97;;;;;;;;;;4990549;28;20179;-65
2021/06/28 08:09:11;;;;;;;91.32;81.70;;;;;;;;;;4990673;28;20029;-64
2021/06/28 08:11:37;;;;;;;87.43;72.10;;;;;;;;;;4987123;28;20244;-65
2021/06/28 08:14:05;;;;;;;87.88;77.40;;;;;;;;;;4990450;28;20050;-65
2021/06/28 08:16:31;;;;;;;75.43;65.53;;;;;;;;;;4990236;28;20050;-65
2021/06/28 08:18:58;;;;;;;68.60;56.45;;;;;;;;;;4990556;28;20547;-64
2021/06/28 08:21:24;;;;;;;70.70;56.65;;;;;;;;;;4987641;28;20275;-64
2021/06/28 08:23:50;;;;;;;76.25;61.75;;;;;;;;;;4989794;28;20517;-65
2021/06/28 08:26:16;;;;;;;71.15;63.40;;;;;;;;;;4990184;28;20121;-65
2021/06/28 08:28:44;;;;;;;74.85;63.28;;;;;;;;;;4989217;28;20490;-65
2021/06/28 08:31:10;;;;;;;76.93;65.53;;;;;;;;;;4989240;28;20033;-65
2021/06/28 08:33:37;;;;;;;72.63;62.30;;;;;;;;;;4988870;28;20057;-66
2021/06/28 08:36:03;;;;;;;73.68;61.65;;;;;;;;;;4989942;28;20060;-65
2021/06/28 08:38:29;;;;;;;68.70;58.35;;;;;;;;;;4989729;28;20058;-65
2021/06/28 08:40:55;;;;;;;80.68;66.47;;;;;;;;;;4990115;28;20030;-66
2021/06/28 08:43:21;;;;;;;74.22;65.70;;;;;;;;;;4986229;28;20030;-66
2021/06/28 08:45:48;;;;;;;105.60;74.50;;;;;;;;;;4990599;28;20023;-65
2021/06/28 08:48:14;;;;;;;94.47;70.63;;;;;;;;;;4989555;28;20485;-66
2021/06/28 08:50:41;;;;;;;95.85;71.32;;;;;;;;;;4989978;28;20026;-66
2021/06/28 08:53:08;;;;;;;96.78;67.80;;;;;;;;;;4985500;28;20095;-66
2021/06/28 08:55:35;;;;;;;88.63;66.45;;;;;;;;;;5007637;28;20045;-66
2021/06/28 08:58:04;;;;;;;87.88;63.78;;;;;;;;;;4993865;28;20034;-65
2021/06/28 09:00:31;;;;;;;86.57;63.05;;;;;;;;;;5039855;28;20169;-65
2021/06/28 09:03:05;;;;;;;84.80;60.70;;;;;;;;;;4985737;28;20175;-66
2021/06/28 09:05:50;;;;;;;83.25;61.08;;;;;;;;;;4989547;28;20121;-66
2021/06/28 09:08:17;;;;;;;99.65;63.83;;;;;;;;;;4989600;28;20027;-66
2021/06/28 09:10:44;;;;;;;93.20;64.55;;;;;;;;;;4988525;28;20025;-66
2021/06/28 09:13:11;;;;;;;94.85;66.03;;;;;;;;;;4986304;28;20030;-66
2021/06/28 09:15:38;;;;;;;98.63;68.07;;;;;;;;;;4989961;28;20026;-66
2021/06/28 09:18:17;;;;;;;101.53;71.38;;;;;;;;;;4989558;28;20030;-66
2021/06/28 09:20:44;;;;;;;108.97;74.72;;;;;;;;;;4989342;28;20079;-66
2021/06/28 09:23:17;;;;;;;102.18;72.20;;;;;;;;;;4986718;28;20543;-66
2021/06/28 09:25:43;;;;;;;105.65;80.03;;;;;;;;;;4989209;28;20026;-66
2021/06/28 09:28:09;;;;;;;108.25;76.68;;;;;;;;;;4989223;28;20034;-66
2021/06/28 09:30:53;;;;;;;107.68;73.32;;;;;;;;;;4989361;28;20548;-66
2021/06/28 09:33:20;;;;;;;107.60;73.20;;;;;;;;;;4986493;28;20026;-66
2021/06/28 09:35:47;;;;;;;103.68;69.07;;;;;;;;;;4987766;28;20058;-66
2021/06/28 09:38:32;;;;;;;108.03;70.40;;;;;;;;;;4988684;28;20054;-66
2021/06/28 09:41:17;;;;;;;110.07;76.72;;;;;;;;;;4988941;28;20403;-66
2021/06/28 09:43:43;;;;;;;99.30;68.20;;;;;;;;;;4988428;28;20030;-66
2021/06/28 09:46:15;;;;;;;97.53;71.45;;;;;;;;;;4988700;28;20030;-66
2021/06/28 09:48:46;;;;;;;101.05;70.40;;;;;;;;;;4984431;28;20027;-66
2021/06/28 09:51:26;;;;;;;107.10;70.22;;;;;;;;;;4987762;28;20018;-66
2021/06/28 09:53:54;;;;;;;107.93;68.90;;;;;;;;;;4992977;28;20017;-66
2021/06/28 09:56:30;;;;;;;93.80;66.38;;;;;;;;;;4994033;28;20030;-66
2021/06/28 09:58:56;;;;;;;97.35;65.28;;;;;;;;;;4997177;28;20026;-66
2021/06/28 10:01:25;;;;;;;93.70;65.20;;;;;;;;;;5007810;28;20014;-66
2021/06/28 10:03:53;;;;;;;99.63;67.90;;;;;;;;;;4987391;28;20033;-66
2021/06/28 10:08:51;;;;;;;97.38;66.15;;;;;;;;;;4989086;28;20031;-66
2021/06/28 10:11:24;;;;;;;89.07;60.65;;;;;;;;;;4986152;28;20084;-66
2021/06/28 10:13:54;;;;;;;90.75;61.55;;;;;;;;;;4988649;28;20035;-66
2021/06/28 10:16:22;;;;;;;94.53;62.85;;;;;;;;;;4988760;28;20075;-66
2021/06/28 10:18:49;;;;;;;97.03;64.65;;;;;;;;;;4988728;28;20018;-66
2021/06/28 10:21:15;;;;;;;95.82;63.78;;;;;;;;;;4986821;28;20029;-66
2021/06/28 10:23:41;;;;;;;106.95;66.80;;;;;;;;;;4987276;28;20027;-66
2021/06/28 10:26:08;;;;;;;97.57;65.65;;;;;;;;;;4987941;28;20030;-65
2021/06/28 10:28:35;;;;;;;97.22;67.22;;;;;;;;;;4988505;28;20057;-66
2021/06/28 10:31:02;;;;;;;101.25;64.95;;;;;;;;;;4987987;28;20041;-66
2021/06/28 10:33:29;;;;;;;99.50;66.05;;;;;;;;;;4985835;28;20023;-66
2021/06/28 10:36:05;;;;;;;96.88;61.92;;;;;;;;;;4988683;28;20187;-65
2021/06/28 10:38:43;;;;;;;99.03;63.15;;;;;;;;;;4986975;28;20588;-66
2021/06/28 10:41:09;;;;;;;97.95;64.68;;;;;;;;;;4986795;28;20026;-66
2021/06/28 10:43:36;;;;;;;89.15;60.35;;;;;;;;;;4986165;28;20378;-66
2021/06/28 10:46:04;;;;;;;85.22;60.33;;;;;;;;;;4988333;28;20027;-66
2021/06/28 10:48:31;;;;;;;92.10;63.58;;;;;;;;;;4987182;28;20038;-66
2021/06/28 10:50:57;;;;;;;96.93;63.95;;;;;;;;;;4986100;28;20105;-66
2021/06/28 10:53:29;;;;;;;98.72;64.65;;;;;;;;;;4985185;28;20030;-66
2021/06/28 10:55:55;;;;;;;91.35;59.47;;;;;;;;;;4987054;28;20033;-66
2021/06/28 10:58:31;;;;;;;87.10;59.58;;;;;;;;;;4987205;28;20034;-66
2021/06/28 11:01:00;;;;;;;82.25;55.83;;;;;;;;;;4999197;28;20117;-66
2021/06/28 11:03:30;;;;;;;85.75;60.17;;;;;;;;;;4984602;28;20014;-66
2021/06/28 11:06:15;;;;;;;90.13;62.55;;;;;;;;;;4987807;28;20454;-66
2021/06/28 11:09:00;;;;;;;98.07;64.22;;;;;;;;;;4986017;28;20073;-66
2021/06/28 11:11:44;;;;;;;95.97;65.43;;;;;;;;;;4981925;28;20022;-66
2021/06/28 11:14:17;;;;;;;99.18;64.68;;;;;;;;;;4987797;28;20026;-66
2021/06/28 11:16:54;;;;;;;96.70;66.60;;;;;;;;;;4987579;28;20084;-66
2021/06/28 11:19:39;;;;;;;101.28;66.45;;;;;;;;;;4987726;28;20033;-66
2021/06/28 11:22:25;;;;;;;97.55;63.47;;;;;;;;;;4984959;28;20054;-66
2021/06/28 11:24:57;;;;;;;99.65;66.47;;;;;;;;;;4986519;28;20057;-66
2021/06/28 11:27:23;;;;;;;100.13;66.18;;;;;;;;;;4987896;28;20034;-66
2021/06/28 11:29:54;;;;;;;98.82;66.88;;;;;;;;;;4987773;28;20508;-66
2021/06/28 11:32:27;;;;;;;104.80;66.60;;;;;;;;;;4983637;28;20026;-66
2021/06/28 11:34:54;;;;;;;102.28;67.82;;;;;;;;;;4988564;28;20033;-66
2021/06/28 11:37:20;;;;;;;95.32;62.47;;;;;;;;;;4989346;28;20512;-66
2021/06/28 11:39:58;;;;;;;93.15;63.53;;;;;;;;;;4990887;28;20030;-66
2021/06/28 11:42:37;;;;;;;87.85;62.22;;;;;;;;;;4988053;28;20026;-67
2021/06/28 11:45:03;;;;;;;90.10;60.60;;;;;;;;;;4991094;28;20033;-66
2021/06/28 11:47:44;;;;;;;89.55;59.22;;;;;;;;;;4991395;28;20030;-66
2021/06/28 11:50:25;;;;;;;89.40;61.72;;;;;;;;;;4985878;28;20117;-66
2021/06/28 11:52:52;;;;;;;89.90;58.83;;;;;;;;;;4988233;28;20049;-66
2021/06/28 11:55:18;;;;;;;95.63;61.53;;;;;;;;;;4990323;28;20037;-66
2021/06/28 11:57:50;;;;;;;88.50;58.80;;;;;;;;;;4990339;28;20102;-66
2021/06/28 12:00:17;;;;;;;97.07;61.70;;;;;;;;;;4994947;28;20033;-66
2021/06/28 12:02:44;;;;;;;91.32;63.00;;;;;;;;;;4987665;28;20019;-67
2021/06/28 12:05:10;;;;;;;97.65;62.88;;;;;;;;;;4990387;28;20015;-66
2021/06/28 12:07:37;;;;;;;92.00;64.38;;;;;;;;;;4990125;28;20045;-66
2021/06/28 12:10:03;;;;;;;91.43;63.03;;;;;;;;;;4989270;28;20058;-66
2021/06/28 12:12:29;;;;;;;91.90;64.57;;;;;;;;;;4987292;28;20018;-66
2021/06/28 12:14:56;;;;;;;97.68;64.35;;;;;;;;;;4990257;28;20033;-66
2021/06/28 12:17:22;;;;;;;90.07;62.90;;;;;;;;;;4989687;28;20223;-66
2021/06/28 12:19:49;;;;;;;96.45;63.05;;;;;;;;;;4988398;28;20076;-66
2021/06/28 12:22:15;;;;;;;90.78;60.45;;;;;;;;;;4986267;28;20028;-66
2021/06/28 12:24:45;;;;;;;85.80;58.42;;;;;;;;;;4989933;28;20053;-66
2021/06/28 12:27:13;;;;;;;90.60;59.88;;;;;;;;;;4989266;28;20034;-66
2021/06/28 12:29:40;;;;;;;87.55;60.80;;;;;;;;;;4989532;28;20035;-67
2021/06/28 12:32:08;;;;;;;98.78;62.17;;;;;;;;;;4987045;28;20027;-67
2021/06/28 12:34:34;;;;;;;98.28;65.85;;;;;;;;;;4990364;28;20034;-66
2021/06/28 12:37:01;;;;;;;95.07;60.28;;;;;;;;;;4989575;28;20050;-66
2021/06/28 12:39:28;;;;;;;93.80;62.05;;;;;;;;;;4988591;28;20390;-67
2021/06/28 12:42:09;;;;;;;87.93;60.78;;;;;;;;;;4987016;28;20461;-66
2021/06/28 12:44:35;;;;;;;88.57;60.65;;;;;;;;;;4990071;28;20401;-66
2021/06/28 12:47:01;;;;;;;90.55;58.45;;;;;;;;;;4990323;28;20388;-66
2021/06/28 12:49:29;;;;;;;88.97;57.55;;;;;;;;;;4990013;28;20136;-67
2021/06/28 12:52:15;;;;;;;89.60;63.53;;;;;;;;;;4986938;28;20057;-67
2021/06/28 12:54:41;;;;;;;87.63;60.88;;;;;;;;;;4980995;28;20039;-66
2021/06/28 12:57:23;;;;;;;83.43;59.63;;;;;;;;;;4989375;28;20034;-67
2021/06/28 12:59:49;;;;;;;95.18;61.20;;;;;;;;;;5011062;28;20032;-67
2021/06/28 13:02:27;;;;;;;89.97;63.13;;;;;;;;;;5004165;28;20042;-67
2021/06/28 13:05:09;;;;;;;89.57;58.88;;;;;;;;;;4989805;28;20498;-67
2021/06/28 13:07:37;;;;;;;82.82;57.97;;;;;;;;;;4989942;28;20059;-67
2021/06/28 13:10:05;;;;;;;81.10;57.08;;;;;;;;;;4989612;28;20511;-67
2021/06/28 13:12:31;;;;;;;84.68;58.55;;;;;;;;;;4987042;28;20029;-67
2021/06/28 13:15:28;;;;;;;89.30;58.22;;;;;;;;;;4989793;28;20558;-67
2021/06/28 13:17:55;;;;;;;87.15;56.92;;;;;;;;;;4989302;28;20094;-67
2021/06/28 13:20:21;;;;;;;83.82;55.65;;;;;;;;;;4988748;28;20057;-67
2021/06/28 13:22:48;;;;;;;83.93;57.58;;;;;;;;;;4987227;28;20062;-66
2021/06/28 13:25:24;;;;;;;88.20;56.33;;;;;;;;;;4989403;28;20036;-66
2021/06/28 13:27:50;;;;;;;81.75;54.53;;;;;;;;;;4988792;28;20054;-67
2021/06/28 13:30:16;;;;;;;77.90;51.63;;;;;;;;;;4989254;28;20038;-67
2021/06/28 13:32:42;;;;;;;87.35;54.53;;;;;;;;;;4986840;28;20025;-67
2021/06/28 13:35:09;;;;;;;79.93;51.97;;;;;;;;;;4988950;28;20034;-67
2021/06/28 13:37:38;;;;;;;80.53;53.05;;;;;;;;;;4981008;28;20428;-67
2021/06/28 13:40:20;;;;;;;73.43;49.25;;;;;;;;;;4987333;28;20056;-67
2021/06/28 13:42:49;;;;;;;78.47;51.67;;;;;;;;;;4986628;28;20038;-67
2021/06/28 13:45:16;;;;;;;78.78;51.65;;;;;;;;;;4987948;28;20088;-67
2021/06/28 13:48:02;;;;;;;72.43;50.30;;;;;;;;;;4989309;28;20030;-67
2021/06/28 13:50:34;;;;;;;71.57;48.72;;;;;;;;;;4984953;28;20034;-67
2021/06/28 13:53:01;;;;;;;75.72;51.10;;;;;;;;;;4986041;28;20061;-67
2021/06/28 13:55:28;;;;;;;77.80;53.88;;;;;;;;;;4985727;28;20033;-67
2021/06/28 13:57:56;;;;;;;75.03;52.20;;;;;;;;;;4987527;28;20524;-67
2021/06/28 14:00:26;;;;;;;73.18;49.50;;;;;;;;;;4990355;28;20170;-67
2021/06/28 14:02:52;;;;;;;74.78;50.55;;;;;;;;;;4990558;28;20026;-67
2021/06/28 14:05:18;;;;;;;75.10;51.38;;;;;;;;;;4989481;28;20041;-68
2021/06/28 14:07:44;;;;;;;75.50;50.75;;;;;;;;;;4986878;28;20105;-67
2021/06/28 14:10:11;;;;;;;70.00;49.83;;;;;;;;;;4987837;28;20395;-68
2021/06/28 14:12:38;;;;;;;72.47;50.20;;;;;;;;;;4983137;28;20033;-67
2021/06/28 14:15:05;;;;;;;77.50;50.47;;;;;;;;;;4985317;28;20053;-67